Time;durP1;ratioP1;P1;durP2;ratioP2;P2;SDS_P1;SDS_P2;PMS_P1;PMS_P2;Temp;Humidity;BMP_temperature;BMP_pressure;BME280_temperature;BME280_humidity;BME280_pressure;Samples;Min_cycle;Max_cycle;Signal;HPM_P1;HPM_P2
2022/05/31 00:01:56;;;;;;;;;;;12.90;94.40;;;9.86;100.00;100356.72;6152058;23;19920;-74
2022/05/31 00:04:23;;;;;;;;;;;13.00;94.60;;;9.86;100.00;100351.28;6152000;23;19929;-74
2022/05/31 00:06:50;;;;;;;;;;;12.90;94.60;;;9.83;100.00;100357.09;6151613;23;19916;-74
2022/05/31 00:09:17;;;;;;;;;;;12.90;94.70;;;9.83;100.00;100357.09;6150933;23;19931;-74
2022/05/31 00:11:44;;;;;;;;;;;12.90;94.70;;;9.82;99.78;100356.25;6152246;23;19995;-74
2022/05/31 00:14:13;;;;;;;;;;;13.00;94.70;;;9.83;99.61;100347.06;6151803;23;20500;-74
2022/05/31 00:16:40;;;;;;;;;;;12.90;94.70;;;9.81;99.69;100353.72;6152267;23;19917;-74
2022/05/31 00:19:09;;;;;;;;;;;12.90;94.80;;;9.79;99.43;100346.59;6150855;23;19928;-74
2022/05/31 00:21:40;;;;;;;;;;;12.90;94.80;;;9.76;99.27;100346.09;6151918;23;19920;-74
2022/05/31 00:24:09;;;;;;;;;;;12.90;94.90;;;9.77;99.26;100348.66;6151176;23;19951;-74
2022/05/31 00:26:38;;;;;;;;;;;12.80;94.70;;;9.76;99.29;100352.38;6151443;23;20667;-74
2022/05/31 00:29:05;;;;;;;;;;;12.90;95.00;;;9.71;99.55;100343.94;6124827;23;19952;-74
2022/05/31 00:31:32;;;;;;;;;;;12.80;94.90;;;9.70;99.76;100344.97;6151540;23;19916;-74
2022/05/31 00:33:59;;;;;;;;;;;12.80;95.00;;;9.68;100.00;100338.88;6151849;23;19959;-74
2022/05/31 00:36:27;;;;;;;;;;;12.80;95.20;;;9.65;100.00;100339.22;6151581;23;19920;-74
2022/05/31 00:38:55;;;;;;;;;;;12.80;95.40;;;9.65;100.00;100333.78;6124774;23;20344;-74
2022/05/31 00:41:26;;;;;;;;;;;12.80;95.50;;;9.63;100.00;100335.00;6124956;23;20334;-74
2022/05/31 00:43:57;;;;;;;;;;;12.70;95.60;;;9.62;100.00;100342.34;6151803;23;19925;-74
2022/05/31 00:46:25;;;;;;;;;;;12.70;95.60;;;9.64;100.00;100343.00;6125785;23;20392;-74
2022/05/31 00:48:56;;;;;;;;;;;12.70;95.70;;;9.63;100.00;100341.28;6150969;23;20358;-74
2022/05/31 00:51:28;;;;;;;;;;;12.70;95.80;;;9.61;100.00;100335.19;6152240;23;20483;-74
2022/05/31 00:53:58;;;;;;;;;;;12.70;96.00;;;9.61;100.00;100332.47;6151535;23;20343;-74
2022/05/31 00:56:27;;;;;;;;;;;12.70;96.00;;;9.61;100.00;100340.63;6151787;23;20382;-74
2022/05/31 00:58:59;;;;;;;;;;;12.70;96.00;;;9.59;100.00;100348.13;6123963;23;19920;-74
2022/05/31 01:01:27;;;;;;;;;;;12.70;96.00;;;9.57;100.00;100342.03;6151928;23;20321;-74
2022/05/31 01:03:55;;;;;;;;;;;12.70;96.00;;;9.54;100.00;100345.97;6151518;23;20291;-74
2022/05/31 01:06:22;;;;;;;;;;;12.70;96.00;;;9.55;100.00;100344.06;6125293;23;19999;-73
2022/05/31 01:08:49;;;;;;;;;;;12.60;96.00;;;9.53;100.00;100338.00;6148832;23;19920;-74
2022/05/31 01:11:40;;;;;;;;;;;12.60;96.00;;;9.52;100.00;100337.16;6149686;23;20510;-74
2022/05/31 01:14:26;;;;;;;;;;;12.60;96.00;;;9.46;100.00;100339.72;6151642;23;19923;-74
2022/05/31 01:16:58;;;;;;;;;;;12.60;96.10;;;9.46;100.00;100334.31;6151162;23;20310;-73
2022/05/31 01:20:06;;;;;;;;;;;12.50;96.10;;;9.43;100.00;100334.69;6089599;23;19921;-74
2022/05/31 01:22:47;;;;;;;;;;;12.50;96.30;;;9.41;100.00;100334.03;6065882;23;19925;-74
2022/05/31 01:25:36;;;;;;;;;;;12.50;96.30;;;9.39;100.00;100337.75;6124423;23;19951;-74
2022/05/31 01:28:10;;;;;;;;;;;12.50;96.30;;;9.36;100.00;100337.25;6124526;23;19954;-74
2022/05/31 01:30:42;;;;;;;;;;;12.50;96.50;;;9.34;100.00;100332.00;6150175;23;20353;-74
2022/05/31 01:33:14;;;;;;;;;;;12.40;96.50;;;9.36;100.00;100329.94;6151072;23;19927;-74
2022/05/31 01:35:44;;;;;;;;;;;12.40;96.50;;;9.36;100.00;100329.13;6125054;23;19916;-74
2022/05/31 01:38:14;;;;;;;;;;;12.40;96.60;;;9.32;100.00;100328.63;6125623;23;19920;-74
2022/05/31 01:40:47;;;;;;;;;;;12.40;96.80;;;9.34;100.00;100337.44;6153324;23;20283;-74
2022/05/31 01:43:14;;;;;;;;;;;12.40;96.80;;;9.34;100.00;100332.00;6153402;23;19942;-75
2022/05/31 01:45:45;;;;;;;;;;;12.40;97.00;;;9.34;100.00;100331.16;6153218;23;19943;-74
2022/05/31 01:48:14;;;;;;;;;;;12.40;97.00;;;9.32;100.00;100323.19;6126144;23;19927;-74
2022/05/31 01:50:41;;;;;;;;;;;12.40;97.20;;;9.34;100.00;100315.72;6153671;23;20262;-74
2022/05/31 01:53:10;;;;;;;;;;;12.40;97.20;;;9.34;100.00;100315.72;6152711;23;19924;-74
2022/05/31 01:55:40;;;;;;;;;;;12.40;97.30;;;9.34;100.00;100318.44;6127279;23;20255;-74
2022/05/31 01:58:09;;;;;;;;;;;12.40;97.30;;;9.34;100.00;100314.88;6126163;23;19921;-74
2022/05/31 02:00:36;;;;;;;;;;;12.40;97.30;;;9.34;100.00;100314.88;6126952;23;19920;-74
2022/05/31 02:03:06;;;;;;;;;;;12.40;97.20;;;9.32;100.00;100317.75;6126967;23;20512;-74
2022/05/31 02:05:34;;;;;;;;;;;12.40;97.30;;;9.31;100.00;100320.66;6126606;23;19920;-74
2022/05/31 02:08:03;;;;;;;;;;;12.40;97.30;;;9.31;100.00;100318.81;6125881;23;19920;-74
2022/05/31 02:10:34;;;;;;;;;;;12.40;97.20;;;9.29;100.00;100307.28;6126072;23;19920;-74
2022/05/31 02:13:05;;;;;;;;;;;12.40;97.20;;;9.31;100.00;100315.22;6126788;23;20299;-74
2022/05/31 02:15:33;;;;;;;;;;;12.40;97.20;;;9.31;100.00;100307.94;6152788;23;19931;-75
2022/05/31 02:19:15;;;;;;;;;;;12.40;97.20;;;9.29;100.00;100310.00;6143592;23;19920;-74
2022/05/31 02:21:35;;;;;;;;;;;12.40;97.30;;;9.30;100.00;100311.69;6152486;23;19920;-74
2022/05/31 02:24:05;;;;;;;;;;;12.30;97.40;;;9.28;100.00;100307.47;6126740;23;20396;-74
2022/05/31 02:26:33;;;;;;;;;;;12.30;97.50;;;9.29;100.00;100307.28;6126663;23;19917;-74
2022/05/31 02:29:01;;;;;;;;;;;12.30;97.70;;;9.29;100.00;100306.41;6125085;23;20248;-74
2022/05/31 02:31:28;;;;;;;;;;;12.30;97.80;;;9.29;100.00;100303.69;6152963;23;20456;-74
2022/05/31 02:33:56;;;;;;;;;;;12.30;97.90;;;9.28;100.00;100305.59;6126704;23;19928;-74
2022/05/31 02:36:23;;;;;;;;;;;12.30;98.00;;;9.28;100.00;100294.72;6126783;23;19921;-74
2022/05/31 02:38:50;;;;;;;;;;;12.30;98.10;;;9.27;100.00;100297.63;6125750;23;19921;-74
2022/05/31 02:41:20;;;;;;;;;;;12.30;98.10;;;9.28;100.00;100299.31;6126468;23;19971;-74
2022/05/31 02:43:48;;;;;;;;;;;12.30;98.20;;;9.28;100.00;100293.88;6125776;23;19920;-74
2022/05/31 02:46:16;;;;;;;;;;;12.40;98.30;;;9.28;100.00;100286.56;6126525;23;19920;-74
2022/05/31 02:48:43;;;;;;;;;;;12.40;98.40;;;9.31;100.00;100282.63;6124754;23;19955;-74
2022/05/31 02:51:10;;;;;;;;;;;12.40;98.40;;;9.30;100.00;100273.66;6152603;23;19983;-74
2022/05/31 02:53:37;;;;;;;;;;;12.40;98.50;;;9.32;100.00;100279.75;6152255;23;19916;-74
2022/05/31 02:56:05;;;;;;;;;;;12.40;98.40;;;9.34;100.00;100277.69;6126444;23;19924;-74
2022/05/31 02:59:06;;;;;;;;;;;12.40;98.40;;;9.36;100.00;100283.78;6086194;23;19920;-74
2022/05/31 03:01:52;;;;;;;;;;;12.40;98.60;;;9.37;100.00;100285.47;6151729;23;19988;-74
2022/05/31 03:04:38;;;;;;;;;;;12.40;98.60;;;9.36;100.00;100280.22;6152028;23;19930;-74
2022/05/31 03:07:25;;;;;;;;;;;12.40;98.80;;;9.36;100.00;100286.50;6135730;23;19920;-74
2022/05/31 03:10:06;;;;;;;;;;;12.50;99.00;;;9.37;100.00;100282.78;6126305;23;20015;-74
2022/05/31 03:12:34;;;;;;;;;;;12.40;98.90;;;9.37;100.00;100285.47;6125715;23;19920;-74
2022/05/31 03:15:05;;;;;;;;;;;12.40;98.90;;;9.40;100.00;100278.84;6126220;23;19927;-74
2022/05/31 03:17:35;;;;;;;;;;;12.50;99.10;;;9.41;100.00;100282.41;6125278;23;19921;-74
2022/05/31 03:20:06;;;;;;;;;;;12.50;99.00;;;9.43;100.00;100280.38;6124772;23;19924;-74
2022/05/31 03:22:37;;;;;;;;;;;12.50;99.10;;;9.44;100.00;100277.44;6151860;23;19959;-74
2022/05/31 03:25:08;;;;;;;;;;;12.50;99.10;;;9.45;100.00;100278.31;6126192;23;19927;-74
2022/05/31 03:27:35;;;;;;;;;;;12.50;99.10;;;9.47;100.00;100281.69;6125278;23;19952;-74
2022/05/31 03:30:06;;;;;;;;;;;12.50;99.20;;;9.49;100.00;100274.19;6125651;23;20296;-74
2022/05/31 03:32:35;;;;;;;;;;;12.60;99.20;;;9.49;100.00;100279.63;6124929;23;19916;-73
2022/05/31 03:35:02;;;;;;;;;;;12.50;99.20;;;9.51;100.00;100283.00;6126010;23;20003;-74
2022/05/31 03:37:30;;;;;;;;;;;12.50;99.10;;;9.50;100.00;100270.44;6125643;23;19920;-74
2022/05/31 03:39:58;;;;;;;;;;;12.60;99.10;;;9.53;100.00;100272.78;6125084;23;19923;-75
2022/05/31 03:42:26;;;;;;;;;;;12.60;99.20;;;9.53;100.00;100280.94;6125936;23;19927;-75
2022/05/31 03:44:54;;;;;;;;;;;12.60;99.10;;;9.54;100.00;100279.94;6126038;23;19939;-74
2022/05/31 03:47:45;;;;;;;;;;;12.60;99.10;;;9.55;100.00;100268.00;6142655;23;19921;-74
2022/05/31 03:50:38;;;;;;;;;;;12.60;99.10;;;9.56;100.00;100272.44;6125973;23;20455;-74
2022/05/31 03:53:06;;;;;;;;;;;12.60;99.20;;;9.57;100.00;100272.22;6126070;23;19924;-74
2022/05/31 03:55:37;;;;;;;;;;;12.60;99.40;;;9.59;100.00;100269.31;6124280;23;19924;-75
2022/05/31 03:58:05;;;;;;;;;;;12.60;99.50;;;9.60;100.00;100271.03;6124743;23;19921;-74
2022/05/31 04:00:55;;;;;;;;;;;12.60;99.50;;;9.61;100.00;100275.41;6109378;23;19924;-74
2022/05/31 04:03:27;;;;;;;;;;;12.70;99.70;;;9.62;100.00;100271.69;6125168;23;19920;-74
2022/05/31 04:05:55;;;;;;;;;;;12.70;99.70;;;9.62;100.00;100277.13;6150734;23;19929;-74
2022/05/31 04:08:25;;;;;;;;;;;12.70;99.70;;;9.64;100.00;100275.06;6124680;23;19960;-74
2022/05/31 04:10:52;;;;;;;;;;;12.70;99.70;;;9.66;100.00;100264.00;6125806;23;19920;-74
2022/05/31 04:13:19;;;;;;;;;;;12.70;99.60;;;9.68;100.00;100264.66;6124791;23;20031;-74
2022/05/31 04:16:07;;;;;;;;;;;12.70;99.70;;;9.69;100.00;100261.78;6152141;23;19986;-73
2022/05/31 04:18:39;;;;;;;;;;;12.70;99.70;;;9.70;100.00;100266.16;6151022;23;19956;-80
2022/05/31 04:21:08;;;;;;;;;;;12.70;99.70;;;9.72;100.00;100266.81;6124194;23;20303;-73
2022/05/31 04:26:42;;;;;;;;;;;12.80;99.80;;;9.77;100.00;100269.00;6105354;23;19991;-73
2022/05/31 04:29:27;;;;;;;;;;;12.80;99.70;;;9.79;100.00;100258.78;6150929;23;19927;-73
2022/05/31 04:32:07;;;;;;;;;;;12.80;99.80;;;9.82;100.00;100268.44;6151421;23;19927;-73
2022/05/31 04:35:02;;;;;;;;;;;12.80;99.80;;;9.83;100.00;100260.09;6139237;23;19924;-73
2022/05/31 04:37:29;;;;;;;;;;;12.90;99.90;;;9.84;100.00;100260.94;6151159;23;20316;-73
2022/05/31 04:40:00;;;;;;;;;;;12.80;99.80;;;9.86;100.00;100256.16;6150902;23;20012;-73
2022/05/31 04:42:51;;;;;;;;;;;12.90;99.90;;;9.88;100.00;100262.25;6124444;23;19928;-72
2022/05/31 04:45:44;;;;;;;;;;;12.90;99.90;;;9.92;100.00;100258.16;6122722;23;20264;-73
2022/05/31 04:48:35;;;;;;;;;;;12.90;99.90;;;9.95;100.00;100264.03;6122446;23;19924;-73
2022/05/31 04:51:03;;;;;;;;;;;13.00;99.90;;;9.96;100.00;100265.72;6123168;23;19967;-73
2022/05/31 04:53:39;;;;;;;;;;;13.00;99.90;;;9.97;100.00;100261.13;6122208;23;19924;-73
2022/05/31 04:56:33;;;;;;;;;;;13.00;99.90;;;10.01;100.00;100261.59;6146230;23;20347;-73
2022/05/31 04:59:06;;;;;;;;;;;13.00;99.90;;;10.03;100.00;100259.53;6122933;23;19995;-73
2022/05/31 05:01:35;;;;;;;;;;;13.00;99.90;;;10.05;100.00;100268.34;6125239;23;19926;-73
2022/05/31 05:04:07;;;;;;;;;;;13.10;99.90;;;10.08;100.00;100270.69;6125362;23;19927;-73
2022/05/31 05:06:42;;;;;;;;;;;13.10;99.90;;;10.09;100.00;100275.97;6125652;23;19917;-73
2022/05/31 05:09:09;;;;;;;;;;;13.10;99.90;;;10.11;100.00;100273.91;6123775;23;19947;-73
2022/05/31 05:11:41;;;;;;;;;;;13.10;99.90;;;10.13;100.00;100265.56;6125811;23;20003;-73
2022/05/31 05:14:22;;;;;;;;;;;13.10;99.90;;;10.15;100.00;100269.75;6126764;23;19921;-76
2022/05/31 05:16:56;;;;;;;;;;;13.20;99.90;;;10.19;100.00;100270.22;6127222;23;19923;-76
2022/05/31 05:19:24;;;;;;;;;;;13.20;99.90;;;10.20;100.00;100274.63;6150076;23;19924;-76
2022/05/31 05:21:59;;;;;;;;;;;13.20;99.90;;;10.21;100.00;100272.78;6127365;23;19926;-76
2022/05/31 05:24:26;;;;;;;;;;;13.20;99.90;;;10.22;100.00;100280.72;6152771;23;19916;-76
2022/05/31 05:27:29;;;;;;;;;;;13.20;99.90;;;10.25;100.00;100284.97;6121128;23;19920;-76
2022/05/31 05:33:15;;;;;;;;;;;13.30;99.90;;;10.29;100.00;100280.81;6153518;23;19927;-75
2022/05/31 05:36:08;;;;;;;;;;;13.30;99.90;;;10.32;100.00;100275.88;6125279;23;19920;-74
2022/05/31 05:38:37;;;;;;;;;;;13.30;99.90;;;10.33;100.00;100269.41;6123565;23;19948;-74
2022/05/31 05:41:24;;;;;;;;;;;13.30;99.90;;;10.36;100.00;100260.03;6151120;23;19928;-75
2022/05/31 05:44:29;;;;;;;;;;;13.30;99.90;;;10.39;100.00;100253.34;6141054;23;20398;-74
2022/05/31 05:47:00;;;;;;;;;;;13.40;99.90;;;10.42;100.00;100253.81;6124721;23;19927;-76
2022/05/31 05:49:27;;;;;;;;;;;13.40;99.90;;;10.46;100.00;100259.72;6124436;23;19964;-75
2022/05/31 05:51:58;;;;;;;;;;;13.40;99.90;;;10.48;100.00;100253.06;6126028;23;19920;-75
2022/05/31 05:55:07;;;;;;;;;;;13.40;99.90;;;10.55;100.00;100264.03;6118767;23;19921;-75
2022/05/31 05:57:54;;;;;;;;;;;13.50;99.90;;;10.59;100.00;100264.50;6118443;23;20110;-75
2022/05/31 06:00:42;;;;;;;;;;;13.50;99.90;;;10.63;100.00;100266.63;6143366;23;20018;-75
2022/05/31 06:03:13;;;;;;;;;;;13.50;99.90;;;10.66;100.00;100265.41;6125944;23;19999;-76
2022/05/31 06:05:54;;;;;;;;;;;13.60;99.90;;;10.69;100.00;100275.91;6125127;23;20476;-76
2022/05/31 06:08:27;;;;;;;;;;;13.60;99.90;;;10.74;100.00;100268.03;6149470;23;19962;-76
2022/05/31 06:11:02;;;;;;;;;;;13.70;99.90;;;10.77;100.00;100267.63;6151921;23;19920;-76
2022/05/31 06:13:32;;;;;;;;;;;13.70;99.90;;;10.82;100.00;100267.91;6125349;23;19960;-75
2022/05/31 06:15:59;;;;;;;;;;;13.70;99.90;;;10.86;100.00;100265.63;6124779;23;19920;-75
2022/05/31 06:18:29;;;;;;;;;;;13.80;99.90;;;10.91;100.00;100263.19;6123068;23;19971;-76
2022/05/31 06:20:58;;;;;;;;;;;13.80;99.90;;;10.95;100.00;100270.78;6124783;23;19921;-75
2022/05/31 06:23:26;;;;;;;;;;;13.90;99.90;;;11.03;100.00;100272.53;6125048;23;19920;-76
2022/05/31 06:25:55;;;;;;;;;;;13.90;99.90;;;11.09;100.00;100270.91;6123888;23;19920;-76
2022/05/31 06:28:38;;;;;;;;;;;14.00;99.90;;;11.13;100.00;100270.31;6124620;23;20003;-76
2022/05/31 06:31:05;;;;;;;;;;;14.00;99.90;;;11.20;100.00;100273.13;6125818;23;20390;-75
2022/05/31 06:33:33;;;;;;;;;;;14.10;99.90;;;11.23;100.00;100270.00;6124863;23;19920;-75
2022/05/31 06:36:02;;;;;;;;;;;14.20;99.90;;;11.26;100.00;100266.88;6125149;23;19924;-75
2022/05/31 06:38:31;;;;;;;;;;;14.20;99.90;;;11.31;100.00;100275.31;6124406;23;20368;-76
2022/05/31 06:40:58;;;;;;;;;;;14.20;99.90;;;11.33;100.00;100273.25;6125759;23;19927;-75
2022/05/31 06:43:45;;;;;;;;;;;14.30;99.90;;;11.37;100.00;100291.94;6150856;23;19979;-76
2022/05/31 06:46:31;;;;;;;;;;;14.30;99.90;;;11.39;100.00;100296.13;6150393;23;19926;-75
2022/05/31 06:49:01;;;;;;;;;;;14.30;99.90;;;11.41;100.00;100285.06;6151099;23;19932;-75
2022/05/31 06:58:14;;;;;;;;;;;14.30;99.90;;;11.42;100.00;100286.72;6122750;23;20399;-75
2022/05/31 07:00:47;;;;;;;;;;;14.40;99.90;;;11.42;100.00;100286.72;6126423;23;19921;-75
2022/05/31 07:03:16;;;;;;;;;;;14.40;99.90;;;11.40;100.00;100288.81;6125538;23;19924;-75
2022/05/31 07:05:43;;;;;;;;;;;14.40;99.90;;;11.41;100.00;100288.59;6124796;23;19925;-75
2022/05/31 07:08:12;;;;;;;;;;;14.40;99.90;;;11.43;100.00;100285.69;6124608;23;20347;-75
2022/05/31 07:11:09;;;;;;;;;;;14.40;99.90;;;11.44;100.00;100279.19;6138922;23;20248;-75
2022/05/31 07:14:05;;;;;;;;;;;14.40;99.90;;;11.46;100.00;100285.28;6097807;23;19921;-76
2022/05/31 07:16:52;;;;;;;;;;;14.40;99.90;;;11.49;100.00;100276.72;6151612;23;20384;-75
2022/05/31 07:19:46;;;;;;;;;;;14.40;99.90;;;11.52;100.00;100285.34;6124765;23;20347;-77
2022/05/31 07:22:15;;;;;;;;;;;14.40;99.90;;;11.52;100.00;100287.25;6125379;23;20390;-77
2022/05/31 07:24:43;;;;;;;;;;;14.40;99.90;;;11.52;100.00;100288.09;6124916;23;19920;-74
2022/05/31 07:27:22;;;;;;;;;;;14.40;99.90;;;11.55;100.00;100292.28;6124857;23;19917;-74
2022/05/31 07:29:54;;;;;;;;;;;14.40;99.90;;;11.57;100.00;100300.28;6124068;23;19927;-74
2022/05/31 07:32:23;;;;;;;;;;;14.40;99.90;;;11.58;100.00;100302.81;6125763;23;19956;-74
2022/05/31 07:34:51;;;;;;;;;;;14.50;99.90;;;11.58;100.00;100308.25;6150861;23;19973;-74
2022/05/31 07:37:19;;;;;;;;;;;14.50;99.90;;;11.59;100.00;100309.94;6124647;23;19920;-74
2022/05/31 07:39:48;;;;;;;;;;;14.50;99.90;;;11.60;100.00;100311.63;6123670;23;20374;-75
2022/05/31 07:42:16;;;;;;;;;;;14.50;99.90;;;11.62;100.00;100306.81;6125673;23;19990;-74
2022/05/31 07:44:47;;;;;;;;;;;14.50;99.90;;;11.63;100.00;100300.34;6125342;23;19916;-74
2022/05/31 07:47:15;;;;;;;;;;;14.50;99.90;;;11.64;100.00;100290.28;6125560;23;19956;-81
2022/05/31 07:49:43;;;;;;;;;;;14.50;99.90;;;11.64;100.00;100285.66;6124384;23;20237;-75
2022/05/31 07:52:40;;;;;;;;;;;14.50;99.90;;;11.64;100.00;100295.72;6144223;23;19920;-74
2022/05/31 07:55:27;;;;;;;;;;;14.50;99.90;;;11.61;100.00;100290.66;6151015;23;20003;-73
2022/05/31 08:01:07;;;;;;;;;;;14.40;99.90;;;11.59;100.00;100299.03;6149469;23;20646;-73
2022/05/31 08:03:34;;;;;;;;;;;14.40;99.90;;;11.61;100.00;100288.75;6122903;23;19972;-73
2022/05/31 08:06:08;;;;;;;;;;;14.50;99.90;;;11.61;100.00;100291.50;6150205;23;19967;-73
2022/05/31 08:08:35;;;;;;;;;;;14.50;99.90;;;11.63;100.00;100289.44;6149570;23;20324;-73
2022/05/31 08:11:04;;;;;;;;;;;14.50;99.90;;;11.66;100.00;100299.94;6149286;23;20054;-73
2022/05/31 08:13:31;;;;;;;;;;;14.40;99.90;;;11.67;100.00;100301.63;6149750;23;19944;-73
2022/05/31 08:15:59;;;;;;;;;;;14.40;99.90;;;11.68;100.00;100302.47;6149060;23;19924;-73
2022/05/31 08:18:26;;;;;;;;;;;14.50;99.90;;;11.67;100.00;100301.63;6147681;23;19924;-74
2022/05/31 08:20:58;;;;;;;;;;;14.50;99.90;;;11.69;100.00;100291.38;6151387;23;19931;-73
2022/05/31 08:23:27;;;;;;;;;;;14.50;99.90;;;11.71;100.00;100291.19;6151286;23;20398;-75
2022/05/31 08:25:55;;;;;;;;;;;14.50;99.90;;;11.72;100.00;100287.38;6151453;23;19995;-74
2022/05/31 08:28:24;;;;;;;;;;;14.50;99.90;;;11.72;100.00;100285.50;6149338;23;20250;-73
2022/05/31 08:31:05;;;;;;;;;;;14.50;99.90;;;11.66;100.00;100275.41;6151755;23;19924;-74
2022/05/31 08:33:33;;;;;;;;;;;14.40;99.90;;;11.69;100.00;100272.28;6151654;23;19920;-74
2022/05/31 08:36:00;;;;;;;;;;;14.40;99.90;;;11.73;100.00;100270.84;6149383;23;20740;-80
2022/05/31 08:38:29;;;;;;;;;;;14.50;99.90;;;11.77;100.00;100262.28;6154412;23;19943;-74
2022/05/31 08:41:05;;;;;;;;;;;14.50;99.90;;;11.79;100.00;100261.03;6149234;23;19920;-75
2022/05/31 08:43:43;;;;;;;;;;;14.50;99.90;;;11.88;100.00;100250.78;6150573;23;19927;-75
2022/05/31 08:46:16;;;;;;;;;;;14.50;99.90;;;11.98;100.00;100251.34;6125395;23;20319;-75
2022/05/31 08:48:50;;;;;;;;;;;14.60;99.90;;;12.08;100.00;100250.97;6152537;23;19920;-75
2022/05/31 08:57:00;;;;;;;;;;;15.00;99.90;;;12.31;100.00;100250.66;6126918;23;19920;-75
2022/05/31 08:59:45;;;;;;;;;;;15.00;99.90;;;12.40;100.00;100244.00;6126069;23;19935;-75
2022/05/31 09:02:17;;;;;;;;;;;15.10;99.90;;;12.49;100.00;100240.03;6151764;23;19984;-75
2022/05/31 09:04:47;;;;;;;;;;;15.20;99.90;;;12.55;100.00;100241.13;6150043;23;19921;-75
2022/05/31 09:07:18;;;;;;;;;;;15.30;99.90;;;12.61;100.00;100247.66;6150177;23;19927;-76
2022/05/31 09:09:52;;;;;;;;;;;15.40;99.90;;;12.65;100.00;100249.75;6125460;23;19971;-75
2022/05/31 09:12:27;;;;;;;;;;;15.40;99.90;;;12.70;100.00;100249.16;6153573;23;19967;-75
2022/05/31 09:15:01;;;;;;;;;;;15.50;99.90;;;12.76;100.00;100255.69;6126063;23;19990;-75
2022/05/31 09:17:35;;;;;;;;;;;15.50;99.90;;;12.78;100.00;100248.97;6153108;23;20392;-75
2022/05/31 09:20:06;;;;;;;;;;;15.60;99.90;;;12.80;100.00;100251.50;6149277;23;20003;-75
2022/05/31 09:22:34;;;;;;;;;;;15.50;99.90;;;12.85;100.00;100259.88;6151481;23;20406;-75
2022/05/31 09:25:05;;;;;;;;;;;15.60;99.90;;;12.87;100.00;100258.66;6152185;23;19920;-75
2022/05/31 09:27:39;;;;;;;;;;;15.60;99.90;;;12.91;100.00;100253.63;6153151;23;20263;-75
2022/05/31 09:30:10;;;;;;;;;;;15.60;99.90;;;12.91;100.00;100259.09;6152178;23;20012;-75
2022/05/31 09:32:51;;;;;;;;;;;15.70;99.90;;;12.95;100.00;100260.34;6152661;23;19920;-75
2022/05/31 09:35:31;;;;;;;;;;;15.70;99.90;;;12.98;100.00;100256.34;6152282;23;20003;-75
2022/05/31 09:38:31;;;;;;;;;;;15.70;99.90;;;13.01;100.00;100254.06;6151458;23;20003;-75
2022/05/31 09:41:06;;;;;;;;;;;15.70;99.90;;;13.10;100.00;100251.97;6150938;23;19927;-75
2022/05/31 09:43:38;;;;;;;;;;;15.80;99.90;;;13.14;100.00;100242.31;6152212;23;19920;-75
2022/05/31 09:46:08;;;;;;;;;;;15.80;99.90;;;13.19;100.00;100245.25;6151369;23;19921;-75
2022/05/31 09:48:40;;;;;;;;;;;15.90;99.90;;;13.24;100.00;100250.94;6151314;23;19967;-76
2022/05/31 09:51:16;;;;;;;;;;;15.90;99.90;;;13.32;100.00;100249.09;6152933;23;20304;-73
2022/05/31 09:57:09;;;;;;;;;;;16.00;99.90;;;13.44;100.00;100252.84;6119245;23;19970;-73
2022/05/31 10:00:16;;;;;;;;;;;16.10;99.90;;;13.52;100.00;100252.66;6097975;23;19921;-73
2022/05/31 10:03:09;;;;;;;;;;;16.20;99.90;;;13.54;98.32;100257.94;6151373;23;19924;-74
2022/05/31 10:05:37;;;;;;;;;;;16.30;99.50;;;13.57;97.48;100252.03;6150640;23;20333;-73
2022/05/31 10:08:04;;;;;;;;;;;16.30;99.50;;;13.62;97.92;100250.34;6123647;23;20560;-73
2022/05/31 10:10:33;;;;;;;;;;;16.30;99.80;;;13.66;96.69;100245.28;6151712;23;19963;-73
2022/05/31 10:13:04;;;;;;;;;;;16.40;99.10;;;13.69;97.39;100240.25;6152163;23;19921;-72
2022/05/31 10:15:48;;;;;;;;;;;16.40;99.50;;;13.75;98.22;100237.72;6151744;23;19958;-72
2022/05/31 10:18:26;;;;;;;;;;;16.40;99.50;;;13.76;96.50;100231.19;6151712;23;19920;-72
2022/05/31 10:20:56;;;;;;;;;;;16.40;98.10;;;13.77;96.10;100241.91;6152493;23;20239;-72
2022/05/31 10:23:25;;;;;;;;;;;16.40;98.20;;;13.79;95.46;100233.50;6152835;23;19916;-72
2022/05/31 10:26:24;;;;;;;;;;;16.40;98.10;;;13.82;93.93;100235.78;6151989;23;19928;-72
2022/05/31 10:29:28;;;;;;;;;;;16.50;98.00;;;13.82;93.04;100228.47;6157438;23;19921;-75
2022/05/31 10:32:26;;;;;;;;;;;16.40;96.70;;;13.87;94.10;100236.00;6126447;23;19921;-75
2022/05/31 10:35:16;;;;;;;;;;;16.40;96.90;;;13.88;92.82;100237.69;6150548;23;19916;-75
2022/05/31 10:37:57;;;;;;;;;;;16.40;96.30;;;13.95;93.91;100227.56;6151743;23;20549;-75
2022/05/31 10:40:32;;;;;;;;;;;16.40;97.60;;;14.01;93.70;100231.34;6153425;23;19916;-75
2022/05/31 10:43:04;;;;;;;;;;;16.50;97.40;;;14.04;93.75;100226.28;6152706;23;20299;-75
2022/05/31 10:45:33;;;;;;;;;;;16.60;97.40;;;14.08;93.88;100224.78;6152335;23;19928;-75
2022/05/31 10:48:01;;;;;;;;;;;16.60;97.40;;;14.11;92.02;100222.69;6151409;23;19924;-75
2022/05/31 10:50:33;;;;;;;;;;;16.70;96.30;;;14.12;91.56;100221.63;6152618;23;19999;-73
2022/05/31 10:53:10;;;;;;;;;;;16.70;96.40;;;14.17;92.66;100213.63;6152727;23;20416;-73
2022/05/31 10:55:40;;;;;;;;;;;16.80;96.70;;;14.21;92.43;100214.88;6149823;23;19999;-77
2022/05/31 10:58:18;;;;;;;;;;;16.80;96.50;;;14.22;90.04;100213.81;6147152;23;19951;-74
2022/05/31 11:00:50;;;;;;;;;;;16.80;95.50;;;14.23;89.25;100207.28;6149243;23;20008;-77
2022/05/31 11:03:30;;;;;;;;;;;16.80;95.30;;;14.24;88.16;100215.28;6152239;23;20307;-76
2022/05/31 11:06:20;;;;;;;;;;;16.80;94.50;;;14.27;89.28;100209.38;6149764;23;20688;-76
2022/05/31 11:11:52;;;;;;;;;;;16.80;93.90;;;14.27;83.85;100203.88;6125787;23;19939;-76
2022/05/31 11:14:29;;;;;;;;;;;16.80;92.90;;;14.29;85.85;100200.94;6151978;23;19928;-75
2022/05/31 11:17:08;;;;;;;;;;;16.80;93.90;;;14.33;84.85;100201.34;6151632;23;19920;-76
2022/05/31 11:19:48;;;;;;;;;;;16.80;92.60;;;14.34;86.21;100197.56;6151152;23;19967;-73
2022/05/31 11:22:29;;;;;;;;;;;16.80;93.60;;;14.39;86.23;100205.94;6151769;23;20004;-73
2022/05/31 11:25:32;;;;;;;;;;;16.80;93.70;;;14.42;85.95;100202.78;6151438;23;19943;-73
2022/05/31 11:28:12;;;;;;;;;;;16.90;93.70;;;14.44;85.09;100198.75;6150115;23;19920;-74
2022/05/31 11:30:42;;;;;;;;;;;16.90;92.60;;;14.49;85.59;100203.59;6151574;23;19920;-75
2022/05/31 11:33:28;;;;;;;;;;;16.90;93.30;;;14.54;86.20;100201.03;6151161;23;19995;-74
2022/05/31 11:36:07;;;;;;;;;;;17.00;93.40;;;14.57;85.47;100203.38;6148017;23;20196;-74
2022/05/31 11:38:41;;;;;;;;;;;17.10;93.20;;;14.63;85.38;100202.50;6150078;23;19971;-74
2022/05/31 11:41:16;;;;;;;;;;;17.10;93.10;;;14.65;86.24;100200.38;6150428;23;19927;-74
2022/05/31 11:44:36;;;;;;;;;;;17.20;93.00;;;14.69;85.57;100198.03;6150784;23;19948;-74
2022/05/31 11:47:11;;;;;;;;;;;17.20;92.90;;;14.70;85.01;100197.00;6151570;23;19975;-76
2022/05/31 11:49:49;;;;;;;;;;;17.30;92.60;;;14.71;84.51;100193.19;6149897;23;19971;-74
2022/05/31 11:52:32;;;;;;;;;;;17.30;92.30;;;14.73;85.12;100190.22;6151773;23;20019;-76
2022/05/31 11:55:29;;;;;;;;;;;17.30;92.10;;;14.71;84.79;100184.97;6150672;23;19948;-74
2022/05/31 11:58:14;;;;;;;;;;;17.30;91.70;;;14.75;85.35;100182.63;6150239;23;19921;-74
2022/05/31 12:00:47;;;;;;;;;;;17.30;92.00;;;14.75;85.04;100188.94;6151741;23;19920;-73
2022/05/31 12:03:18;;;;;;;;;;;17.30;91.70;;;14.76;84.19;100187.88;6149988;23;19925;-73
2022/05/31 12:05:50;;;;;;;;;;;17.30;91.60;;;14.77;83.83;100186.81;6150731;23;19920;-74
2022/05/31 12:08:21;;;;;;;;;;;17.30;91.20;;;14.81;84.67;100188.06;6149671;23;19920;-74
2022/05/31 12:10:52;;;;;;;;;;;17.30;91.80;;;14.80;81.44;100191.84;6125282;23;19929;-74